sensor_id;sensor_type;location;lat;lon;timestamp;temperature;humidity
14873;DHT22;7528;48.576;19.122;2023-05-21T00:04:01;18.10;81.60
14873;DHT22;7528;48.576;19.122;2023-05-21T00:09:04;18.10;81.70
14873;DHT22;7528;48.576;19.122;2023-05-21T00:14:09;18.10;82.30
14873;DHT22;7528;48.576;19.122;2023-05-21T00:19:11;18.00;82.30
14873;DHT22;7528;48.576;19.122;2023-05-21T00:24:14;17.90;81.60
14873;DHT22;7528;48.576;19.122;2023-05-21T00:29:18;17.80;81.70
14873;DHT22;7528;48.576;19.122;2023-05-21T00:34:20;17.80;81.80
14873;DHT22;7528;48.576;19.122;2023-05-21T00:39:23;17.70;82.70
14873;DHT22;7528;48.576;19.122;2023-05-21T00:44:27;17.70;83.90
14873;DHT22;7528;48.576;19.122;2023-05-21T00:49:34;17.70;85.10
14873;DHT22;7528;48.576;19.122;2023-05-21T00:54:36;17.60;85.00
14873;DHT22;7528;48.576;19.122;2023-05-21T00:59:40;17.50;84.40
14873;DHT22;7528;48.576;19.122;2023-05-21T01:04:43;17.50;83.60
14873;DHT22;7528;48.576;19.122;2023-05-21T01:09:46;17.40;83.90
14873;DHT22;7528;48.576;19.122;2023-05-21T01:14:51;17.40;84.50
14873;DHT22;7528;48.576;19.122;2023-05-21T01:19:54;17.50;85.70
14873;DHT22;7528;48.576;19.122;2023-05-21T01:25:00;17.50;86.80
14873;DHT22;7528;48.576;19.122;2023-05-21T01:30:04;17.40;86.10
14873;DHT22;7528;48.576;19.122;2023-05-21T01:35:08;17.30;86.80
14873;DHT22;7528;48.576;19.122;2023-05-21T01:40:17;17.20;87.70
14873;DHT22;7528;48.576;19.122;2023-05-21T01:45:24;17.20;87.80
14873;DHT22;7528;48.576;19.122;2023-05-21T01:50:29;17.20;87.50
14873;DHT22;7528;48.576;19.122;2023-05-21T01:55:33;17.20;87.10
14873;DHT22;7528;48.576;19.122;2023-05-21T02:00:39;17.20;86.90
14873;DHT22;7528;48.576;19.122;2023-05-21T02:05:42;17.10;86.50
14873;DHT22;7528;48.576;19.122;2023-05-21T02:10:46;17.00;86.60
14873;DHT22;7528;48.576;19.122;2023-05-21T02:15:48;16.90;86.40
14873;DHT22;7528;48.576;19.122;2023-05-21T02:20:51;16.90;86.80
14873;DHT22;7528;48.576;19.122;2023-05-21T02:25:55;16.90;87.00
14873;DHT22;7528;48.576;19.122;2023-05-21T02:30:58;16.90;86.50
14873;DHT22;7528;48.576;19.122;2023-05-21T02:36:00;16.80;86.10
14873;DHT22;7528;48.576;19.122;2023-05-21T02:41:06;16.70;85.30
14873;DHT22;7528;48.576;19.122;2023-05-21T02:46:08;16.70;85.20
14873;DHT22;7528;48.576;19.122;2023-05-21T02:51:11;16.60;85.40
14873;DHT22;7528;48.576;19.122;2023-05-21T02:56:15;16.60;85.90
14873;DHT22;7528;48.576;19.122;2023-05-21T03:01:18;16.60;86.10
14873;DHT22;7528;48.576;19.122;2023-05-21T03:06:21;16.60;86.30
14873;DHT22;7528;48.576;19.122;2023-05-21T03:11:25;16.50;85.70
14873;DHT22;7528;48.576;19.122;2023-05-21T03:16:29;16.40;85.80
14873;DHT22;7528;48.576;19.122;2023-05-21T03:21:34;16.30;85.30
14873;DHT22;7528;48.576;19.122;2023-05-21T03:26:38;16.30;85.70
14873;DHT22;7528;48.576;19.122;2023-05-21T03:31:42;16.30;85.80
14873;DHT22;7528;48.576;19.122;2023-05-21T03:36:47;16.30;86.00
14873;DHT22;7528;48.576;19.122;2023-05-21T03:41:53;16.20;86.20
14873;DHT22;7528;48.576;19.122;2023-05-21T03:47:07;16.20;87.00
14873;DHT22;7528;48.576;19.122;2023-05-21T03:52:10;16.10;86.50
14873;DHT22;7528;48.576;19.122;2023-05-21T03:57:15;16.20;86.90
14873;DHT22;7528;48.576;19.122;2023-05-21T04:02:20;16.20;86.90
14873;DHT22;7528;48.576;19.122;2023-05-21T04:07:23;16.20;87.70
14873;DHT22;7528;48.576;19.122;2023-05-21T04:12:28;16.20;88.60
14873;DHT22;7528;48.576;19.122;2023-05-21T04:17:32;16.30;89.10
14873;DHT22;7528;48.576;19.122;2023-05-21T04:22:36;16.40;89.80
14873;DHT22;7528;48.576;19.122;2023-05-21T04:27:40;16.40;89.70
14873;DHT22;7528;48.576;19.122;2023-05-21T04:32:44;16.40;88.70
14873;DHT22;7528;48.576;19.122;2023-05-21T04:37:48;16.40;89.40
14873;DHT22;7528;48.576;19.122;2023-05-21T04:42:52;16.40;90.20
14873;DHT22;7528;48.576;19.122;2023-05-21T04:47:57;16.50;90.50
14873;DHT22;7528;48.576;19.122;2023-05-21T04:53:02;16.60;90.50
14873;DHT22;7528;48.576;19.122;2023-05-21T04:58:07;16.70;90.80
14873;DHT22;7528;48.576;19.122;2023-05-21T05:03:11;16.80;91.00
14873;DHT22;7528;48.576;19.122;2023-05-21T05:08:13;16.80;91.00
14873;DHT22;7528;48.576;19.122;2023-05-21T05:13:17;16.90;91.00
14873;DHT22;7528;48.576;19.122;2023-05-21T05:18:20;17.00;91.10
14873;DHT22;7528;48.576;19.122;2023-05-21T05:23:23;17.10;90.90
14873;DHT22;7528;48.576;19.122;2023-05-21T05:28:27;17.20;91.50
14873;DHT22;7528;48.576;19.122;2023-05-21T05:33:29;17.30;91.40
14873;DHT22;7528;48.576;19.122;2023-05-21T05:38:33;17.40;91.60
14873;DHT22;7528;48.576;19.122;2023-05-21T05:43:37;17.50;91.70
14873;DHT22;7528;48.576;19.122;2023-05-21T05:48:41;17.50;91.40
14873;DHT22;7528;48.576;19.122;2023-05-21T05:53:44;17.70;91.50
14873;DHT22;7528;48.576;19.122;2023-05-21T05:58:48;17.80;91.70
14873;DHT22;7528;48.576;19.122;2023-05-21T06:03:53;17.90;91.40
14873;DHT22;7528;48.576;19.122;2023-05-21T06:08:57;18.00;90.90
14873;DHT22;7528;48.576;19.122;2023-05-21T06:14:01;18.10;90.70
14873;DHT22;7528;48.576;19.122;2023-05-21T06:19:03;18.20;90.30
14873;DHT22;7528;48.576;19.122;2023-05-21T06:24:06;18.40;87.90
14873;DHT22;7528;48.576;19.122;2023-05-21T06:29:10;18.60;86.60
14873;DHT22;7528;48.576;19.122;2023-05-21T06:34:13;18.80;86.30
14873;DHT22;7528;48.576;19.122;2023-05-21T07:06:00;17.90;94.60
14873;DHT22;7528;48.576;19.122;2023-05-21T07:11:03;18.60;95.30
14873;DHT22;7528;48.576;19.122;2023-05-21T07:16:06;19.50;91.40
14873;DHT22;7528;48.576;19.122;2023-05-21T07:21:12;20.10;88.50
14873;DHT22;7528;48.576;19.122;2023-05-21T07:26:14;20.50;87.20
14873;DHT22;7528;48.576;19.122;2023-05-21T07:31:17;20.80;87.30
14873;DHT22;7528;48.576;19.122;2023-05-21T07:36:24;21.10;75.70
14873;DHT22;7528;48.576;19.122;2023-05-21T07:41:27;21.40;74.60
14873;DHT22;7528;48.576;19.122;2023-05-21T07:46:31;21.60;69.30
14873;DHT22;7528;48.576;19.122;2023-05-21T07:51:35;21.90;68.60
14873;DHT22;7528;48.576;19.122;2023-05-21T07:56:38;22.10;68.00
14873;DHT22;7528;48.576;19.122;2023-05-21T08:01:42;22.40;65.90
14873;DHT22;7528;48.576;19.122;2023-05-21T08:06:46;22.60;64.40
14873;DHT22;7528;48.576;19.122;2023-05-21T08:11:49;22.90;65.70
14873;DHT22;7528;48.576;19.122;2023-05-21T08:16:52;23.10;63.20
14873;DHT22;7528;48.576;19.122;2023-05-21T08:21:56;23.30;61.80
14873;DHT22;7528;48.576;19.122;2023-05-21T08:27:01;23.50;62.00
14873;DHT22;7528;48.576;19.122;2023-05-21T08:32:05;23.80;59.00
14873;DHT22;7528;48.576;19.122;2023-05-21T08:37:12;24.00;59.50
14873;DHT22;7528;48.576;19.122;2023-05-21T08:42:42;24.30;59.80
14873;DHT22;7528;48.576;19.122;2023-05-21T08:47:54;24.50;55.80
14873;DHT22;7528;48.576;19.122;2023-05-21T08:53:00;24.70;59.80
14873;DHT22;7528;48.576;19.122;2023-05-21T08:58:03;25.00;58.10
14873;DHT22;7528;48.576;19.122;2023-05-21T09:03:07;25.10;54.80
14873;DHT22;7528;48.576;19.122;2023-05-21T09:08:17;25.20;53.70
14873;DHT22;7528;48.576;19.122;2023-05-21T09:13:50;25.40;55.60
14873;DHT22;7528;48.576;19.122;2023-05-21T09:19:01;25.70;52.70
14873;DHT22;7528;48.576;19.122;2023-05-21T09:24:09;26.00;51.80
14873;DHT22;7528;48.576;19.122;2023-05-21T09:29:13;26.20;49.50
14873;DHT22;7528;48.576;19.122;2023-05-21T09:34:15;26.50;51.50
14873;DHT22;7528;48.576;19.122;2023-05-21T09:39:40;26.80;51.30
14873;DHT22;7528;48.576;19.122;2023-05-21T09:44:48;26.90;47.40
14873;DHT22;7528;48.576;19.122;2023-05-21T09:49:50;27.10;45.90
14873;DHT22;7528;48.576;19.122;2023-05-21T09:54:54;27.30;47.70
14873;DHT22;7528;48.576;19.122;2023-05-21T09:59:58;27.40;49.50
14873;DHT22;7528;48.576;19.122;2023-05-21T10:05:05;27.60;48.30
14873;DHT22;7528;48.576;19.122;2023-05-21T10:10:12;27.70;47.80
14873;DHT22;7528;48.576;19.122;2023-05-21T10:15:19;28.00;46.50
14873;DHT22;7528;48.576;19.122;2023-05-21T10:20:24;28.00;47.20
14873;DHT22;7528;48.576;19.122;2023-05-21T10:25:30;28.20;46.10
14873;DHT22;7528;48.576;19.122;2023-05-21T10:30:32;28.40;46.20
14873;DHT22;7528;48.576;19.122;2023-05-21T10:35:46;28.40;44.90
14873;DHT22;7528;48.576;19.122;2023-05-21T10:40:56;28.20;44.60
14873;DHT22;7528;48.576;19.122;2023-05-21T10:46:46;28.00;45.00
14873;DHT22;7528;48.576;19.122;2023-05-21T10:52:17;27.90;43.10
14873;DHT22;7528;48.576;19.122;2023-05-21T10:58:01;28.00;43.90
14873;DHT22;7528;48.576;19.122;2023-05-21T11:03:12;28.00;44.00
14873;DHT22;7528;48.576;19.122;2023-05-21T11:08:37;28.20;45.00
14873;DHT22;7528;48.576;19.122;2023-05-21T11:13:54;28.40;39.00
14873;DHT22;7528;48.576;19.122;2023-05-21T11:19:25;28.30;41.30
14873;DHT22;7528;48.576;19.122;2023-05-21T11:25:03;28.30;43.90
14873;DHT22;7528;48.576;19.122;2023-05-21T11:30:22;28.40;43.40
14873;DHT22;7528;48.576;19.122;2023-05-21T11:35:56;28.60;43.40
14873;DHT22;7528;48.576;19.122;2023-05-21T11:41:20;28.80;39.00
14873;DHT22;7528;48.576;19.122;2023-05-21T11:46:27;28.80;37.10
14873;DHT22;7528;48.576;19.122;2023-05-21T11:51:31;28.90;37.90
14873;DHT22;7528;48.576;19.122;2023-05-21T11:56:37;28.80;35.50
14873;DHT22;7528;48.576;19.122;2023-05-21T12:01:43;29.00;34.00
14873;DHT22;7528;48.576;19.122;2023-05-21T12:06:48;29.10;32.80
14873;DHT22;7528;48.576;19.122;2023-05-21T12:11:52;29.40;34.60
14873;DHT22;7528;48.576;19.122;2023-05-21T12:16:56;29.40;36.50
14873;DHT22;7528;48.576;19.122;2023-05-21T12:22:01;29.30;37.00
14873;DHT22;7528;48.576;19.122;2023-05-21T12:27:05;29.20;37.60
14873;DHT22;7528;48.576;19.122;2023-05-21T12:32:41;29.30;37.10
14873;DHT22;7528;48.576;19.122;2023-05-21T12:37:45;29.40;37.70
14873;DHT22;7528;48.576;19.122;2023-05-21T12:42:48;29.20;37.60
14873;DHT22;7528;48.576;19.122;2023-05-21T12:47:53;29.10;35.90
14873;DHT22;7528;48.576;19.122;2023-05-21T12:52:57;28.80;36.60
14873;DHT22;7528;48.576;19.122;2023-05-21T12:58:03;28.70;36.20
14873;DHT22;7528;48.576;19.122;2023-05-21T13:03:09;28.40;35.60
14873;DHT22;7528;48.576;19.122;2023-05-21T13:08:12;28.40;37.40
14873;DHT22;7528;48.576;19.122;2023-05-21T13:13:16;28.10;41.00
14873;DHT22;7528;48.576;19.122;2023-05-21T13:18:21;27.80;42.90
14873;DHT22;7528;48.576;19.122;2023-05-21T13:23:23;27.50;43.90
14873;DHT22;7528;48.576;19.122;2023-05-21T13:28:26;27.30;44.60
14873;DHT22;7528;48.576;19.122;2023-05-21T13:33:30;27.20;45.20
14873;DHT22;7528;48.576;19.122;2023-05-21T13:38:33;27.10;45.30
14873;DHT22;7528;48.576;19.122;2023-05-21T13:43:36;27.00;46.00
14873;DHT22;7528;48.576;19.122;2023-05-21T13:48:40;26.80;46.30
14873;DHT22;7528;48.576;19.122;2023-05-21T13:53:43;26.70;47.60
14873;DHT22;7528;48.576;19.122;2023-05-21T13:58:46;26.70;47.70
14873;DHT22;7528;48.576;19.122;2023-05-21T14:03:49;26.70;49.80
14873;DHT22;7528;48.576;19.122;2023-05-21T14:08:52;26.80;50.50
14873;DHT22;7528;48.576;19.122;2023-05-21T14:13:54;27.00;51.50
14873;DHT22;7528;48.576;19.122;2023-05-21T14:18:58;27.10;52.30
14873;DHT22;7528;48.576;19.122;2023-05-21T14:24:01;27.10;53.10
14873;DHT22;7528;48.576;19.122;2023-05-21T14:29:04;27.10;53.20
14873;DHT22;7528;48.576;19.122;2023-05-21T14:34:07;27.10;52.50
14873;DHT22;7528;48.576;19.122;2023-05-21T14:39:10;27.10;51.90
14873;DHT22;7528;48.576;19.122;2023-05-21T14:44:13;27.10;51.70
14873;DHT22;7528;48.576;19.122;2023-05-21T14:49:17;27.10;50.60
14873;DHT22;7528;48.576;19.122;2023-05-21T14:54:19;27.10;50.30
14873;DHT22;7528;48.576;19.122;2023-05-21T14:59:21;27.20;49.90
14873;DHT22;7528;48.576;19.122;2023-05-21T15:04:25;27.20;49.60
14873;DHT22;7528;48.576;19.122;2023-05-21T15:09:28;27.10;49.10
14873;DHT22;7528;48.576;19.122;2023-05-21T15:14:30;27.00;49.10
14873;DHT22;7528;48.576;19.122;2023-05-21T15:19:34;26.80;50.00
14873;DHT22;7528;48.576;19.122;2023-05-21T15:24:37;26.70;50.30
14873;DHT22;7528;48.576;19.122;2023-05-21T15:29:40;26.50;50.70
14873;DHT22;7528;48.576;19.122;2023-05-21T15:34:44;26.40;50.40
14873;DHT22;7528;48.576;19.122;2023-05-21T15:39:47;26.40;51.10
14873;DHT22;7528;48.576;19.122;2023-05-21T15:44:49;26.40;52.40
14873;DHT22;7528;48.576;19.122;2023-05-21T15:49:53;26.40;51.30
14873;DHT22;7528;48.576;19.122;2023-05-21T15:54:56;26.30;52.90
14873;DHT22;7528;48.576;19.122;2023-05-21T15:59:58;26.10;53.40
14873;DHT22;7528;48.576;19.122;2023-05-21T16:05:03;26.10;53.70
14873;DHT22;7528;48.576;19.122;2023-05-21T16:10:08;26.10;54.30
14873;DHT22;7528;48.576;19.122;2023-05-21T16:15:12;26.00;54.60
14873;DHT22;7528;48.576;19.122;2023-05-21T16:20:16;26.00;54.60
14873;DHT22;7528;48.576;19.122;2023-05-21T16:25:19;26.10;52.60
14873;DHT22;7528;48.576;19.122;2023-05-21T16:30:21;26.00;53.00
14873;DHT22;7528;48.576;19.122;2023-05-21T16:35:25;25.80;52.20
14873;DHT22;7528;48.576;19.122;2023-05-21T16:40:28;25.80;52.10
14873;DHT22;7528;48.576;19.122;2023-05-21T16:45:37;25.80;51.10
14873;DHT22;7528;48.576;19.122;2023-05-21T16:50:42;25.70;50.70
14873;DHT22;7528;48.576;19.122;2023-05-21T16:55:46;25.70;50.20
14873;DHT22;7528;48.576;19.122;2023-05-21T17:00:48;25.70;50.80
14873;DHT22;7528;48.576;19.122;2023-05-21T17:05:53;25.60;51.30
14873;DHT22;7528;48.576;19.122;2023-05-21T17:10:56;25.50;51.10
14873;DHT22;7528;48.576;19.122;2023-05-21T17:15:59;25.40;51.30
14873;DHT22;7528;48.576;19.122;2023-05-21T17:21:03;25.40;52.60
14873;DHT22;7528;48.576;19.122;2023-05-21T17:26:06;25.30;55.40
14873;DHT22;7528;48.576;19.122;2023-05-21T17:31:09;25.30;56.40
14873;DHT22;7528;48.576;19.122;2023-05-21T17:36:13;25.20;56.90
14873;DHT22;7528;48.576;19.122;2023-05-21T17:41:16;25.20;58.00
14873;DHT22;7528;48.576;19.122;2023-05-21T17:46:19;25.10;57.60
14873;DHT22;7528;48.576;19.122;2023-05-21T17:51:23;25.00;57.30
14873;DHT22;7528;48.576;19.122;2023-05-21T17:56:26;24.90;57.30
14873;DHT22;7528;48.576;19.122;2023-05-21T18:01:28;24.70;57.90
14873;DHT22;7528;48.576;19.122;2023-05-21T18:06:35;24.60;57.60
14873;DHT22;7528;48.576;19.122;2023-05-21T18:11:39;24.40;56.80
14873;DHT22;7528;48.576;19.122;2023-05-21T18:16:42;24.30;57.20
14873;DHT22;7528;48.576;19.122;2023-05-21T18:21:47;24.10;56.30
14873;DHT22;7528;48.576;19.122;2023-05-21T18:26:50;24.00;55.30
14873;DHT22;7528;48.576;19.122;2023-05-21T18:31:52;23.80;55.70
14873;DHT22;7528;48.576;19.122;2023-05-21T18:37:04;23.80;56.20
14873;DHT22;7528;48.576;19.122;2023-05-21T18:42:09;23.70;55.10
14873;DHT22;7528;48.576;19.122;2023-05-21T18:47:12;23.60;56.20
14873;DHT22;7528;48.576;19.122;2023-05-21T18:52:16;23.40;57.90
14873;DHT22;7528;48.576;19.122;2023-05-21T18:57:18;23.20;57.70
14873;DHT22;7528;48.576;19.122;2023-05-21T19:02:21;23.10;57.70
14873;DHT22;7528;48.576;19.122;2023-05-21T19:07:25;23.00;58.00
14873;DHT22;7528;48.576;19.122;2023-05-21T19:12:28;23.00;58.20
14873;DHT22;7528;48.576;19.122;2023-05-21T19:17:31;22.90;59.00
14873;DHT22;7528;48.576;19.122;2023-05-21T19:22:36;22.80;59.00
14873;DHT22;7528;48.576;19.122;2023-05-21T19:27:38;22.60;58.90
14873;DHT22;7528;48.576;19.122;2023-05-21T19:32:41;22.60;60.00
14873;DHT22;7528;48.576;19.122;2023-05-21T19:37:44;22.50;60.10
14873;DHT22;7528;48.576;19.122;2023-05-21T19:42:47;22.30;60.40
14873;DHT22;7528;48.576;19.122;2023-05-21T19:47:49;22.30;61.60
14873;DHT22;7528;48.576;19.122;2023-05-21T19:52:53;22.20;61.90
14873;DHT22;7528;48.576;19.122;2023-05-21T19:57:56;22.10;62.20
14873;DHT22;7528;48.576;19.122;2023-05-21T20:02:58;22.10;62.30
14873;DHT22;7528;48.576;19.122;2023-05-21T20:08:02;22.00;63.20
14873;DHT22;7528;48.576;19.122;2023-05-21T20:13:10;21.90;63.70
14873;DHT22;7528;48.576;19.122;2023-05-21T20:18:12;21.80;63.90
14873;DHT22;7528;48.576;19.122;2023-05-21T20:23:16;21.80;64.50
14873;DHT22;7528;48.576;19.122;2023-05-21T20:28:19;21.70;64.70
14873;DHT22;7528;48.576;19.122;2023-05-21T20:33:22;21.60;65.00
14873;DHT22;7528;48.576;19.122;2023-05-21T20:38:26;21.50;65.30
14873;DHT22;7528;48.576;19.122;2023-05-21T20:43:32;21.40;66.00
14873;DHT22;7528;48.576;19.122;2023-05-21T20:48:37;21.30;65.60
14873;DHT22;7528;48.576;19.122;2023-05-21T20:53:41;21.30;66.20
14873;DHT22;7528;48.576;19.122;2023-05-21T20:58:43;21.20;66.90
14873;DHT22;7528;48.576;19.122;2023-05-21T21:03:45;21.20;67.00
14873;DHT22;7528;48.576;19.122;2023-05-21T21:08:49;21.10;67.50
14873;DHT22;7528;48.576;19.122;2023-05-21T21:13:52;21.10;67.90
14873;DHT22;7528;48.576;19.122;2023-05-21T21:18:54;21.10;68.60
14873;DHT22;7528;48.576;19.122;2023-05-21T21:23:58;21.00;69.10
14873;DHT22;7528;48.576;19.122;2023-05-21T21:29:00;21.00;69.00
14873;DHT22;7528;48.576;19.122;2023-05-21T21:34:03;20.90;69.10
14873;DHT22;7528;48.576;19.122;2023-05-21T21:39:07;20.90;69.60
14873;DHT22;7528;48.576;19.122;2023-05-21T21:44:09;20.90;69.80
14873;DHT22;7528;48.576;19.122;2023-05-21T21:49:11;20.80;69.90
14873;DHT22;7528;48.576;19.122;2023-05-21T21:54:18;20.80;69.60
14873;DHT22;7528;48.576;19.122;2023-05-21T21:59:20;20.80;69.90
14873;DHT22;7528;48.576;19.122;2023-05-21T22:04:23;20.70;70.30
14873;DHT22;7528;48.576;19.122;2023-05-21T22:09:27;20.70;70.60
14873;DHT22;7528;48.576;19.122;2023-05-21T22:14:29;20.60;70.60
14873;DHT22;7528;48.576;19.122;2023-05-21T22:19:32;20.60;70.60
14873;DHT22;7528;48.576;19.122;2023-05-21T22:24:35;20.50;70.60
14873;DHT22;7528;48.576;19.122;2023-05-21T22:29:38;20.50;70.70
14873;DHT22;7528;48.576;19.122;2023-05-21T22:34:40;20.30;71.30
14873;DHT22;7528;48.576;19.122;2023-05-21T22:39:44;20.30;71.10
14873;DHT22;7528;48.576;19.122;2023-05-21T22:44:47;20.30;71.00
14873;DHT22;7528;48.576;19.122;2023-05-21T22:49:49;20.20;71.30
14873;DHT22;7528;48.576;19.122;2023-05-21T22:54:54;20.20;71.70
14873;DHT22;7528;48.576;19.122;2023-05-21T22:59:57;20.10;72.10
14873;DHT22;7528;48.576;19.122;2023-05-21T23:05:00;20.10;72.80
14873;DHT22;7528;48.576;19.122;2023-05-21T23:10:04;20.00;73.20
14873;DHT22;7528;48.576;19.122;2023-05-21T23:15:08;20.00;73.40
14873;DHT22;7528;48.576;19.122;2023-05-21T23:20:10;19.90;73.50
14873;DHT22;7528;48.576;19.122;2023-05-21T23:25:15;19.90;73.90
14873;DHT22;7528;48.576;19.122;2023-05-21T23:30:18;19.90;74.40
14873;DHT22;7528;48.576;19.122;2023-05-21T23:35:20;19.80;74.40
14873;DHT22;7528;48.576;19.122;2023-05-21T23:40:24;19.80;74.70
14873;DHT22;7528;48.576;19.122;2023-05-21T23:45:27;19.70;74.80
14873;DHT22;7528;48.576;19.122;2023-05-21T23:50:29;19.60;74.60
14873;DHT22;7528;48.576;19.122;2023-05-21T23:55:33;19.50;74.80
